sensor_id;sensor_type;location;lat;lon;timestamp;temperature;humidity
11736;DHT22;5924;51.398;7.088;2022-10-22T00:00:07;13.20;99.90
11736;DHT22;5924;51.398;7.088;2022-10-22T00:02:33;13.30;99.90
11736;DHT22;5924;51.398;7.088;2022-10-22T00:04:59;14.90;99.90
11736;DHT22;5924;51.398;7.088;2022-10-22T00:07:24;13.30;99.90
11736;DHT22;5924;51.398;7.088;2022-10-22T00:09:50;13.30;99.90
11736;DHT22;5924;51.398;7.088;2022-10-22T00:12:16;13.30;99.90
11736;DHT22;5924;51.398;7.088;2022-10-22T00:14:42;13.30;99.90
11736;DHT22;5924;51.398;7.088;2022-10-22T00:17:08;13.30;99.90
11736;DHT22;5924;51.398;7.088;2022-10-22T00:19:34;13.30;99.90
11736;DHT22;5924;51.398;7.088;2022-10-22T00:21:59;13.30;99.90
11736;DHT22;5924;51.398;7.088;2022-10-22T00:24:25;13.30;99.90
11736;DHT22;5924;51.398;7.088;2022-10-22T00:26:51;13.40;99.90
11736;DHT22;5924;51.398;7.088;2022-10-22T00:29:17;13.40;99.90
11736;DHT22;5924;51.398;7.088;2022-10-22T00:31:45;13.50;99.90
11736;DHT22;5924;51.398;7.088;2022-10-22T00:34:16;13.60;99.90
11736;DHT22;5924;51.398;7.088;2022-10-22T00:36:42;13.60;99.90
11736;DHT22;5924;51.398;7.088;2022-10-22T00:39:07;13.60;99.90
11736;DHT22;5924;51.398;7.088;2022-10-22T00:41:33;13.70;99.90
11736;DHT22;5924;51.398;7.088;2022-10-22T00:44:01;13.80;99.90
11736;DHT22;5924;51.398;7.088;2022-10-22T00:46:27;13.20;99.90
11736;DHT22;5924;51.398;7.088;2022-10-22T00:48:56;13.80;99.90
11736;DHT22;5924;51.398;7.088;2022-10-22T00:51:26;13.80;99.90
11736;DHT22;5924;51.398;7.088;2022-10-22T00:53:59;13.80;99.90
11736;DHT22;5924;51.398;7.088;2022-10-22T00:56:26;13.80;99.90
11736;DHT22;5924;51.398;7.088;2022-10-22T00:58:56;13.80;99.90
11736;DHT22;5924;51.398;7.088;2022-10-22T01:01:26;13.80;99.90
11736;DHT22;5924;51.398;7.088;2022-10-22T01:03:52;13.80;99.90
11736;DHT22;5924;51.398;7.088;2022-10-22T01:06:24;13.80;99.90
11736;DHT22;5924;51.398;7.088;2022-10-22T01:17:05;13.80;99.90
11736;DHT22;5924;51.398;7.088;2022-10-22T01:25:35;13.80;99.90
11736;DHT22;5924;51.398;7.088;2022-10-22T01:30:42;13.80;99.90
11736;DHT22;5924;51.398;7.088;2022-10-22T01:33:12;14.30;99.90
11736;DHT22;5924;51.398;7.088;2022-10-22T01:35:42;13.80;99.90
11736;DHT22;5924;51.398;7.088;2022-10-22T01:38:13;13.90;99.90
11736;DHT22;5924;51.398;7.088;2022-10-22T01:40:40;13.90;99.90
11736;DHT22;5924;51.398;7.088;2022-10-22T01:43:09;14.00;99.90
11736;DHT22;5924;51.398;7.088;2022-10-22T01:45:45;13.90;99.90
11736;DHT22;5924;51.398;7.088;2022-10-22T01:48:33;13.90;99.90
11736;DHT22;5924;51.398;7.088;2022-10-22T01:59:35;13.80;99.90
11736;DHT22;5924;51.398;7.088;2022-10-22T02:02:09;13.80;99.90
11736;DHT22;5924;51.398;7.088;2022-10-22T02:04:44;15.90;99.90
11736;DHT22;5924;51.398;7.088;2022-10-22T02:07:14;13.80;99.90
11736;DHT22;5924;51.398;7.088;2022-10-22T02:09:42;13.70;99.90
11736;DHT22;5924;51.398;7.088;2022-10-22T02:12:10;13.60;99.90
11736;DHT22;5924;51.398;7.088;2022-10-22T02:14:38;13.60;99.90
11736;DHT22;5924;51.398;7.088;2022-10-22T02:17:08;13.50;99.90
11736;DHT22;5924;51.398;7.088;2022-10-22T02:19:45;13.50;99.90
11736;DHT22;5924;51.398;7.088;2022-10-22T02:22:12;13.40;99.90
11736;DHT22;5924;51.398;7.088;2022-10-22T02:24:38;13.40;99.90
11736;DHT22;5924;51.398;7.088;2022-10-22T02:32:19;13.30;99.90
11736;DHT22;5924;51.398;7.088;2022-10-22T02:34:46;13.30;99.90
11736;DHT22;5924;51.398;7.088;2022-10-22T02:37:13;13.30;99.90
11736;DHT22;5924;51.398;7.088;2022-10-22T02:39:40;13.40;99.90
11736;DHT22;5924;51.398;7.088;2022-10-22T02:42:05;13.30;99.90
11736;DHT22;5924;51.398;7.088;2022-10-22T02:44:31;13.30;99.90
11736;DHT22;5924;51.398;7.088;2022-10-22T02:46:57;13.20;99.90
11736;DHT22;5924;51.398;7.088;2022-10-22T02:49:23;13.20;99.90
11736;DHT22;5924;51.398;7.088;2022-10-22T02:51:49;13.20;99.90
11736;DHT22;5924;51.398;7.088;2022-10-22T02:54:14;13.20;99.90
11736;DHT22;5924;51.398;7.088;2022-10-22T02:56:40;13.10;99.90
11736;DHT22;5924;51.398;7.088;2022-10-22T02:59:05;13.10;99.90
11736;DHT22;5924;51.398;7.088;2022-10-22T03:01:31;13.10;99.90
11736;DHT22;5924;51.398;7.088;2022-10-22T03:03:56;13.10;99.90
11736;DHT22;5924;51.398;7.088;2022-10-22T03:06:22;13.10;99.90
11736;DHT22;5924;51.398;7.088;2022-10-22T03:08:48;13.10;99.90
11736;DHT22;5924;51.398;7.088;2022-10-22T03:11:13;13.10;99.90
11736;DHT22;5924;51.398;7.088;2022-10-22T03:13:39;13.10;99.90
11736;DHT22;5924;51.398;7.088;2022-10-22T03:16:05;13.10;99.90
11736;DHT22;5924;51.398;7.088;2022-10-22T03:18:31;13.20;99.90
11736;DHT22;5924;51.398;7.088;2022-10-22T03:21:05;13.20;99.90
11736;DHT22;5924;51.398;7.088;2022-10-22T03:23:32;13.30;99.90
11736;DHT22;5924;51.398;7.088;2022-10-22T03:25:58;13.30;99.90
11736;DHT22;5924;51.398;7.088;2022-10-22T03:28:24;13.30;99.90
11736;DHT22;5924;51.398;7.088;2022-10-22T03:30:51;13.30;99.90
11736;DHT22;5924;51.398;7.088;2022-10-22T03:33:17;13.40;99.90
11736;DHT22;5924;51.398;7.088;2022-10-22T03:35:44;13.40;99.90
11736;DHT22;5924;51.398;7.088;2022-10-22T03:38:11;13.40;99.90
11736;DHT22;5924;51.398;7.088;2022-10-22T03:40:38;13.30;99.90
11736;DHT22;5924;51.398;7.088;2022-10-22T03:43:03;13.30;99.90
11736;DHT22;5924;51.398;7.088;2022-10-22T03:45:29;13.40;99.90
11736;DHT22;5924;51.398;7.088;2022-10-22T03:47:55;13.40;99.90
11736;DHT22;5924;51.398;7.088;2022-10-22T03:50:20;13.30;99.90
11736;DHT22;5924;51.398;7.088;2022-10-22T03:52:46;13.30;99.90
11736;DHT22;5924;51.398;7.088;2022-10-22T03:55:11;13.30;99.90
11736;DHT22;5924;51.398;7.088;2022-10-22T03:57:37;13.20;99.90
11736;DHT22;5924;51.398;7.088;2022-10-22T04:00:04;13.20;99.90
11736;DHT22;5924;51.398;7.088;2022-10-22T04:02:30;13.10;99.90
11736;DHT22;5924;51.398;7.088;2022-10-22T04:04:56;13.20;99.90
11736;DHT22;5924;51.398;7.088;2022-10-22T04:07:21;13.10;99.90
11736;DHT22;5924;51.398;7.088;2022-10-22T04:09:47;13.10;99.90
11736;DHT22;5924;51.398;7.088;2022-10-22T04:12:13;13.10;99.90
11736;DHT22;5924;51.398;7.088;2022-10-22T04:14:38;13.20;99.90
11736;DHT22;5924;51.398;7.088;2022-10-22T04:17:04;13.40;99.90
11736;DHT22;5924;51.398;7.088;2022-10-22T04:19:30;13.40;99.90
11736;DHT22;5924;51.398;7.088;2022-10-22T04:21:59;13.40;99.90
11736;DHT22;5924;51.398;7.088;2022-10-22T04:24:25;13.40;99.90
11736;DHT22;5924;51.398;7.088;2022-10-22T04:26:53;13.50;99.90
11736;DHT22;5924;51.398;7.088;2022-10-22T04:29:18;13.50;99.90
11736;DHT22;5924;51.398;7.088;2022-10-22T04:31:44;13.50;99.90
11736;DHT22;5924;51.398;7.088;2022-10-22T04:34:09;13.40;99.90
11736;DHT22;5924;51.398;7.088;2022-10-22T04:36:35;13.50;99.90
11736;DHT22;5924;51.398;7.088;2022-10-22T04:39:02;13.50;99.90
11736;DHT22;5924;51.398;7.088;2022-10-22T04:41:34;13.50;99.90
11736;DHT22;5924;51.398;7.088;2022-10-22T04:44:00;13.40;99.90
11736;DHT22;5924;51.398;7.088;2022-10-22T04:46:28;13.30;99.90
11736;DHT22;5924;51.398;7.088;2022-10-22T04:48:54;13.30;99.90
11736;DHT22;5924;51.398;7.088;2022-10-22T04:51:22;13.30;99.90
11736;DHT22;5924;51.398;7.088;2022-10-22T04:53:48;13.30;99.90
11736;DHT22;5924;51.398;7.088;2022-10-22T04:56:16;13.40;99.90
11736;DHT22;5924;51.398;7.088;2022-10-22T04:58:47;13.40;99.90
11736;DHT22;5924;51.398;7.088;2022-10-22T05:01:25;13.50;99.90
11736;DHT22;5924;51.398;7.088;2022-10-22T05:03:52;13.50;99.90
11736;DHT22;5924;51.398;7.088;2022-10-22T05:06:18;13.50;99.90
11736;DHT22;5924;51.398;7.088;2022-10-22T05:08:46;13.50;99.90
11736;DHT22;5924;51.398;7.088;2022-10-22T05:11:14;13.50;99.90
11736;DHT22;5924;51.398;7.088;2022-10-22T05:13:40;13.50;99.90
11736;DHT22;5924;51.398;7.088;2022-10-22T05:16:06;13.40;99.90
11736;DHT22;5924;51.398;7.088;2022-10-22T05:18:36;13.40;99.90
11736;DHT22;5924;51.398;7.088;2022-10-22T05:21:03;13.30;99.90
11736;DHT22;5924;51.398;7.088;2022-10-22T05:23:28;13.30;99.90
11736;DHT22;5924;51.398;7.088;2022-10-22T05:25:54;13.30;99.90
11736;DHT22;5924;51.398;7.088;2022-10-22T05:28:19;13.30;99.90
11736;DHT22;5924;51.398;7.088;2022-10-22T05:30:55;13.30;99.90
11736;DHT22;5924;51.398;7.088;2022-10-22T05:33:21;13.40;99.90
11736;DHT22;5924;51.398;7.088;2022-10-22T05:35:48;13.40;99.90
11736;DHT22;5924;51.398;7.088;2022-10-22T05:38:15;13.40;99.90
11736;DHT22;5924;51.398;7.088;2022-10-22T05:40:41;13.30;99.90
11736;DHT22;5924;51.398;7.088;2022-10-22T05:43:06;13.40;99.90
11736;DHT22;5924;51.398;7.088;2022-10-22T05:45:36;13.30;99.90
11736;DHT22;5924;51.398;7.088;2022-10-22T05:48:02;13.30;99.90
11736;DHT22;5924;51.398;7.088;2022-10-22T05:50:27;13.30;99.90
11736;DHT22;5924;51.398;7.088;2022-10-22T05:52:53;13.30;99.90
11736;DHT22;5924;51.398;7.088;2022-10-22T05:55:18;13.30;99.90
11736;DHT22;5924;51.398;7.088;2022-10-22T05:57:44;13.30;99.90
11736;DHT22;5924;51.398;7.088;2022-10-22T06:00:11;13.30;99.90
11736;DHT22;5924;51.398;7.088;2022-10-22T06:02:36;13.30;99.90
11736;DHT22;5924;51.398;7.088;2022-10-22T06:05:02;13.30;99.90
11736;DHT22;5924;51.398;7.088;2022-10-22T06:07:28;13.30;99.90
11736;DHT22;5924;51.398;7.088;2022-10-22T06:09:54;13.40;99.90
11736;DHT22;5924;51.398;7.088;2022-10-22T06:12:20;13.40;99.90
11736;DHT22;5924;51.398;7.088;2022-10-22T06:14:45;13.40;99.90
11736;DHT22;5924;51.398;7.088;2022-10-22T06:17:11;13.50;99.90
11736;DHT22;5924;51.398;7.088;2022-10-22T06:19:37;13.50;99.90
11736;DHT22;5924;51.398;7.088;2022-10-22T06:22:04;13.50;99.90
11736;DHT22;5924;51.398;7.088;2022-10-22T06:24:29;13.50;99.90
11736;DHT22;5924;51.398;7.088;2022-10-22T06:26:55;13.50;99.90
11736;DHT22;5924;51.398;7.088;2022-10-22T06:29:21;13.50;99.90
11736;DHT22;5924;51.398;7.088;2022-10-22T06:31:47;13.50;99.90
11736;DHT22;5924;51.398;7.088;2022-10-22T06:34:13;13.50;99.90
11736;DHT22;5924;51.398;7.088;2022-10-22T06:36:39;13.50;99.90
11736;DHT22;5924;51.398;7.088;2022-10-22T06:39:12;13.60;99.90
11736;DHT22;5924;51.398;7.088;2022-10-22T06:41:37;13.60;99.90
11736;DHT22;5924;51.398;7.088;2022-10-22T06:44:03;13.60;99.90
11736;DHT22;5924;51.398;7.088;2022-10-22T06:46:29;13.60;99.90
11736;DHT22;5924;51.398;7.088;2022-10-22T06:49:00;13.60;99.90
11736;DHT22;5924;51.398;7.088;2022-10-22T06:51:28;13.70;99.90
11736;DHT22;5924;51.398;7.088;2022-10-22T06:53:55;13.70;99.90
11736;DHT22;5924;51.398;7.088;2022-10-22T06:56:22;13.70;99.90
11736;DHT22;5924;51.398;7.088;2022-10-22T06:58:50;13.70;99.90
11736;DHT22;5924;51.398;7.088;2022-10-22T07:01:17;13.70;99.90
11736;DHT22;5924;51.398;7.088;2022-10-22T07:03:43;13.70;99.90
11736;DHT22;5924;51.398;7.088;2022-10-22T07:06:11;13.80;99.90
11736;DHT22;5924;51.398;7.088;2022-10-22T07:08:37;13.80;99.90
11736;DHT22;5924;51.398;7.088;2022-10-22T07:11:07;13.80;99.90
11736;DHT22;5924;51.398;7.088;2022-10-22T07:13:34;13.80;99.90
11736;DHT22;5924;51.398;7.088;2022-10-22T07:15:59;13.90;99.90
11736;DHT22;5924;51.398;7.088;2022-10-22T07:18:25;13.90;99.90
11736;DHT22;5924;51.398;7.088;2022-10-22T07:20:51;14.00;99.90
11736;DHT22;5924;51.398;7.088;2022-10-22T07:23:16;14.40;99.90
11736;DHT22;5924;51.398;7.088;2022-10-22T07:25:42;14.10;99.90
11736;DHT22;5924;51.398;7.088;2022-10-22T07:28:08;14.10;99.90
11736;DHT22;5924;51.398;7.088;2022-10-22T07:30:35;14.20;99.90
11736;DHT22;5924;51.398;7.088;2022-10-22T07:33:01;14.30;99.90
11736;DHT22;5924;51.398;7.088;2022-10-22T07:35:26;14.40;99.90
11736;DHT22;5924;51.398;7.088;2022-10-22T07:37:52;14.60;99.90
11736;DHT22;5924;51.398;7.088;2022-10-22T07:40:17;14.80;99.90
11736;DHT22;5924;51.398;7.088;2022-10-22T07:42:43;15.00;99.90
11736;DHT22;5924;51.398;7.088;2022-10-22T07:45:09;15.10;99.90
11736;DHT22;5924;51.398;7.088;2022-10-22T07:47:35;15.30;99.90
11736;DHT22;5924;51.398;7.088;2022-10-22T07:50:00;15.40;99.90
11736;DHT22;5924;51.398;7.088;2022-10-22T07:52:26;15.50;92.60
11736;DHT22;5924;51.398;7.088;2022-10-22T07:54:52;15.60;89.10
11736;DHT22;5924;51.398;7.088;2022-10-22T07:57:18;15.60;61.30
11736;DHT22;5924;51.398;7.088;2022-10-22T07:59:43;15.70;47.50
11736;DHT22;5924;51.398;7.088;2022-10-22T08:02:11;15.70;30.00
11736;DHT22;5924;51.398;7.088;2022-10-22T08:04:37;15.70;18.80
11736;DHT22;5924;51.398;7.088;2022-10-22T08:07:03;15.80;30.50
11736;DHT22;5924;51.398;7.088;2022-10-22T08:09:28;15.90;15.30
11736;DHT22;5924;51.398;7.088;2022-10-22T08:11:54;16.00;1.00
11736;DHT22;5924;51.398;7.088;2022-10-22T08:14:19;16.10;5.40
11736;DHT22;5924;51.398;7.088;2022-10-22T08:16:45;16.30;1.00
11736;DHT22;5924;51.398;7.088;2022-10-22T08:19:11;16.40;1.00
11736;DHT22;5924;51.398;7.088;2022-10-22T08:21:38;16.50;1.00
11736;DHT22;5924;51.398;7.088;2022-10-22T08:24:04;16.50;1.00
11736;DHT22;5924;51.398;7.088;2022-10-22T08:26:30;16.60;1.00
11736;DHT22;5924;51.398;7.088;2022-10-22T08:28:56;16.60;1.00
11736;DHT22;5924;51.398;7.088;2022-10-22T08:31:22;16.60;1.00
11736;DHT22;5924;51.398;7.088;2022-10-22T08:33:48;16.70;1.00
11736;DHT22;5924;51.398;7.088;2022-10-22T08:36:14;16.80;1.00
11736;DHT22;5924;51.398;7.088;2022-10-22T08:38:40;16.80;1.00
11736;DHT22;5924;51.398;7.088;2022-10-22T08:41:12;16.80;1.00
11736;DHT22;5924;51.398;7.088;2022-10-22T08:43:46;16.70;1.00
11736;DHT22;5924;51.398;7.088;2022-10-22T08:46:37;16.60;1.00
11736;DHT22;5924;51.398;7.088;2022-10-22T08:49:10;16.60;1.00
11736;DHT22;5924;51.398;7.088;2022-10-22T08:51:38;16.60;1.00
11736;DHT22;5924;51.398;7.088;2022-10-22T08:59:51;16.50;1.00
11736;DHT22;5924;51.398;7.088;2022-10-22T09:02:21;16.60;1.00
11736;DHT22;5924;51.398;7.088;2022-10-22T09:05:03;16.70;1.00
11736;DHT22;5924;51.398;7.088;2022-10-22T09:07:30;16.70;1.00
11736;DHT22;5924;51.398;7.088;2022-10-22T09:09:57;16.80;1.00
11736;DHT22;5924;51.398;7.088;2022-10-22T09:12:23;16.80;1.00
11736;DHT22;5924;51.398;7.088;2022-10-22T09:14:51;16.90;1.00
11736;DHT22;5924;51.398;7.088;2022-10-22T09:17:28;16.90;1.00
11736;DHT22;5924;51.398;7.088;2022-10-22T09:20:27;16.90;1.00
11736;DHT22;5924;51.398;7.088;2022-10-22T09:25:55;17.00;1.00
11736;DHT22;5924;51.398;7.088;2022-10-22T09:28:21;17.10;1.00
11736;DHT22;5924;51.398;7.088;2022-10-22T09:30:47;17.20;1.00
11736;DHT22;5924;51.398;7.088;2022-10-22T09:33:24;17.20;1.00
11736;DHT22;5924;51.398;7.088;2022-10-22T09:38:20;17.30;1.00
11736;DHT22;5924;51.398;7.088;2022-10-22T09:40:49;17.40;1.00
11736;DHT22;5924;51.398;7.088;2022-10-22T09:43:16;17.50;1.00
11736;DHT22;5924;51.398;7.088;2022-10-22T09:45:47;17.50;1.00
11736;DHT22;5924;51.398;7.088;2022-10-22T09:50:48;17.40;1.00
11736;DHT22;5924;51.398;7.088;2022-10-22T09:53:21;17.30;1.00
11736;DHT22;5924;51.398;7.088;2022-10-22T09:55:58;17.40;1.00
11736;DHT22;5924;51.398;7.088;2022-10-22T09:58:24;17.40;1.00
11736;DHT22;5924;51.398;7.088;2022-10-22T10:00:56;17.30;1.00
11736;DHT22;5924;51.398;7.088;2022-10-22T10:03:25;17.30;1.00
11736;DHT22;5924;51.398;7.088;2022-10-22T10:05:55;17.30;1.00
11736;DHT22;5924;51.398;7.088;2022-10-22T10:08:21;17.20;1.00
11736;DHT22;5924;51.398;7.088;2022-10-22T10:10:49;17.10;1.00
11736;DHT22;5924;51.398;7.088;2022-10-22T10:22:01;17.20;1.00
11736;DHT22;5924;51.398;7.088;2022-10-22T10:27:24;17.20;1.00
11736;DHT22;5924;51.398;7.088;2022-10-22T10:33:21;17.30;1.00
11736;DHT22;5924;51.398;7.088;2022-10-22T10:36:29;17.30;1.00
11736;DHT22;5924;51.398;7.088;2022-10-22T10:44:24;17.20;1.00
11736;DHT22;5924;51.398;7.088;2022-10-22T10:49:36;17.40;1.00
11736;DHT22;5924;51.398;7.088;2022-10-22T11:00:16;17.80;99.90
11736;DHT22;5924;51.398;7.088;2022-10-22T11:05:37;18.10;99.90
11736;DHT22;5924;51.398;7.088;2022-10-22T11:10:57;18.00;1.00
11736;DHT22;5924;51.398;7.088;2022-10-22T11:13:47;18.00;99.90
11736;DHT22;5924;51.398;7.088;2022-10-22T11:26:59;18.00;1.00
11736;DHT22;5924;51.398;7.088;2022-10-22T11:29:36;18.00;1.00
11736;DHT22;5924;51.398;7.088;2022-10-22T11:32:07;17.90;46.70
11736;DHT22;5924;51.398;7.088;2022-10-22T11:34:46;17.90;99.90
11736;DHT22;5924;51.398;7.088;2022-10-22T11:37:14;17.90;1.00
11736;DHT22;5924;51.398;7.088;2022-10-22T11:39:58;17.90;1.00
11736;DHT22;5924;51.398;7.088;2022-10-22T11:42:36;18.00;1.00
11736;DHT22;5924;51.398;7.088;2022-10-22T11:53:25;18.10;99.90
11736;DHT22;5924;51.398;7.088;2022-10-22T11:56:21;18.10;99.90
11736;DHT22;5924;51.398;7.088;2022-10-22T11:58:46;18.10;1.00
11736;DHT22;5924;51.398;7.088;2022-10-22T12:06:19;18.80;99.90
11736;DHT22;5924;51.398;7.088;2022-10-22T12:11:38;17.80;99.90
11736;DHT22;5924;51.398;7.088;2022-10-22T12:16:55;17.60;99.90
11736;DHT22;5924;51.398;7.088;2022-10-22T12:22:33;17.70;1.00
11736;DHT22;5924;51.398;7.088;2022-10-22T12:24:42;17.70;99.90
11736;DHT22;5924;51.398;7.088;2022-10-22T12:27:21;17.80;1.00
11736;DHT22;5924;51.398;7.088;2022-10-22T12:29:47;17.80;99.90
11736;DHT22;5924;51.398;7.088;2022-10-22T12:32:14;18.00;99.90
11736;DHT22;5924;51.398;7.088;2022-10-22T12:34:48;18.10;99.90
11736;DHT22;5924;51.398;7.088;2022-10-22T12:37:15;18.20;99.90
11736;DHT22;5924;51.398;7.088;2022-10-22T12:39:41;18.30;99.90
11736;DHT22;5924;51.398;7.088;2022-10-22T12:42:13;18.30;99.90
11736;DHT22;5924;51.398;7.088;2022-10-22T12:44:39;18.40;99.90
11736;DHT22;5924;51.398;7.088;2022-10-22T12:47:06;18.40;99.90
11736;DHT22;5924;51.398;7.088;2022-10-22T12:49:38;18.40;99.90
11736;DHT22;5924;51.398;7.088;2022-10-22T12:52:06;18.40;99.90
11736;DHT22;5924;51.398;7.088;2022-10-22T12:54:33;18.40;99.90
11736;DHT22;5924;51.398;7.088;2022-10-22T12:57:00;18.40;99.90
11736;DHT22;5924;51.398;7.088;2022-10-22T12:59:35;18.40;99.90
11736;DHT22;5924;51.398;7.088;2022-10-22T13:02:02;18.30;99.90
11736;DHT22;5924;51.398;7.088;2022-10-22T13:09:38;18.00;99.90
11736;DHT22;5924;51.398;7.088;2022-10-22T13:12:06;18.00;99.90
11736;DHT22;5924;51.398;7.088;2022-10-22T13:14:35;18.10;99.90
11736;DHT22;5924;51.398;7.088;2022-10-22T13:22:31;18.60;99.90
11736;DHT22;5924;51.398;7.088;2022-10-22T13:25:21;18.60;99.90
11736;DHT22;5924;51.398;7.088;2022-10-22T13:30:34;18.60;99.90
11736;DHT22;5924;51.398;7.088;2022-10-22T13:33:06;18.70;99.90
11736;DHT22;5924;51.398;7.088;2022-10-22T13:35:35;18.80;99.90
11736;DHT22;5924;51.398;7.088;2022-10-22T13:38:02;18.70;99.90
11736;DHT22;5924;51.398;7.088;2022-10-22T13:40:28;18.60;99.90
11736;DHT22;5924;51.398;7.088;2022-10-22T13:42:53;18.40;99.90
11736;DHT22;5924;51.398;7.088;2022-10-22T13:45:19;18.30;99.90
11736;DHT22;5924;51.398;7.088;2022-10-22T13:47:51;18.10;99.90
11736;DHT22;5924;51.398;7.088;2022-10-22T13:50:18;18.10;99.90
11736;DHT22;5924;51.398;7.088;2022-10-22T13:52:55;18.00;99.90
11736;DHT22;5924;51.398;7.088;2022-10-22T13:55:26;18.00;99.90
11736;DHT22;5924;51.398;7.088;2022-10-22T13:58:10;18.00;99.90
11736;DHT22;5924;51.398;7.088;2022-10-22T14:00:37;17.90;99.90
11736;DHT22;5924;51.398;7.088;2022-10-22T14:03:03;17.80;99.90
11736;DHT22;5924;51.398;7.088;2022-10-22T14:05:30;17.80;99.90
11736;DHT22;5924;51.398;7.088;2022-10-22T14:07:59;17.80;99.90
11736;DHT22;5924;51.398;7.088;2022-10-22T14:10:25;17.70;99.90
11736;DHT22;5924;51.398;7.088;2022-10-22T14:12:51;17.80;99.90
11736;DHT22;5924;51.398;7.088;2022-10-22T14:15:19;17.80;99.90
11736;DHT22;5924;51.398;7.088;2022-10-22T14:17:47;17.80;99.90
11736;DHT22;5924;51.398;7.088;2022-10-22T14:20:36;17.80;99.90
11736;DHT22;5924;51.398;7.088;2022-10-22T14:23:21;17.70;99.90
11736;DHT22;5924;51.398;7.088;2022-10-22T14:25:47;17.60;99.90
11736;DHT22;5924;51.398;7.088;2022-10-22T14:28:16;17.50;99.90
11736;DHT22;5924;51.398;7.088;2022-10-22T14:30:42;17.40;99.90
11736;DHT22;5924;51.398;7.088;2022-10-22T14:33:20;17.30;99.90
11736;DHT22;5924;51.398;7.088;2022-10-22T14:35:47;17.20;99.90
11736;DHT22;5924;51.398;7.088;2022-10-22T14:38:13;17.10;99.90
11736;DHT22;5924;51.398;7.088;2022-10-22T14:40:40;16.90;99.90
11736;DHT22;5924;51.398;7.088;2022-10-22T14:45:44;17.00;99.90
11736;DHT22;5924;51.398;7.088;2022-10-22T14:48:10;16.90;99.90
11736;DHT22;5924;51.398;7.088;2022-10-22T14:50:35;16.90;99.90
11736;DHT22;5924;51.398;7.088;2022-10-22T14:53:01;16.80;99.90
11736;DHT22;5924;51.398;7.088;2022-10-22T14:55:27;16.80;99.90
11736;DHT22;5924;51.398;7.088;2022-10-22T14:57:53;16.80;99.90
11736;DHT22;5924;51.398;7.088;2022-10-22T15:00:19;16.80;99.90
11736;DHT22;5924;51.398;7.088;2022-10-22T15:02:46;16.90;99.90
11736;DHT22;5924;51.398;7.088;2022-10-22T15:05:13;16.90;99.90
11736;DHT22;5924;51.398;7.088;2022-10-22T15:07:39;16.90;99.90
11736;DHT22;5924;51.398;7.088;2022-10-22T15:10:07;16.90;99.90
11736;DHT22;5924;51.398;7.088;2022-10-22T15:12:33;16.90;99.90
11736;DHT22;5924;51.398;7.088;2022-10-22T15:14:59;16.80;99.90
11736;DHT22;5924;51.398;7.088;2022-10-22T15:17:24;16.70;99.90
11736;DHT22;5924;51.398;7.088;2022-10-22T15:19:50;16.70;99.90
11736;DHT22;5924;51.398;7.088;2022-10-22T15:22:18;16.70;99.90
11736;DHT22;5924;51.398;7.088;2022-10-22T15:24:44;16.70;99.90
11736;DHT22;5924;51.398;7.088;2022-10-22T15:27:11;16.80;99.90
11736;DHT22;5924;51.398;7.088;2022-10-22T15:29:40;16.80;99.90
11736;DHT22;5924;51.398;7.088;2022-10-22T15:32:07;16.90;99.90
11736;DHT22;5924;51.398;7.088;2022-10-22T15:34:35;17.00;99.90
11736;DHT22;5924;51.398;7.088;2022-10-22T15:37:03;17.00;99.90
11736;DHT22;5924;51.398;7.088;2022-10-22T15:39:30;17.00;99.90
11736;DHT22;5924;51.398;7.088;2022-10-22T15:41:56;16.90;99.90
11736;DHT22;5924;51.398;7.088;2022-10-22T15:44:31;16.90;99.90
11736;DHT22;5924;51.398;7.088;2022-10-22T15:46:57;16.70;99.90
11736;DHT22;5924;51.398;7.088;2022-10-22T15:49:25;16.60;99.90
11736;DHT22;5924;51.398;7.088;2022-10-22T15:51:52;16.40;99.90
11736;DHT22;5924;51.398;7.088;2022-10-22T15:54:20;16.30;99.90
11736;DHT22;5924;51.398;7.088;2022-10-22T15:56:47;16.10;99.90
11736;DHT22;5924;51.398;7.088;2022-10-22T15:59:14;15.90;99.90
11736;DHT22;5924;51.398;7.088;2022-10-22T16:01:40;15.70;99.90
11736;DHT22;5924;51.398;7.088;2022-10-22T16:04:07;15.60;99.90
11736;DHT22;5924;51.398;7.088;2022-10-22T16:06:37;15.40;99.90
11736;DHT22;5924;51.398;7.088;2022-10-22T16:09:06;15.30;99.90
11736;DHT22;5924;51.398;7.088;2022-10-22T16:11:32;15.10;99.90
11736;DHT22;5924;51.398;7.088;2022-10-22T16:13:59;15.00;99.90
11736;DHT22;5924;51.398;7.088;2022-10-22T16:16:27;14.80;99.90
11736;DHT22;5924;51.398;7.088;2022-10-22T16:18:53;14.70;99.90
11736;DHT22;5924;51.398;7.088;2022-10-22T16:21:20;14.60;99.90
11736;DHT22;5924;51.398;7.088;2022-10-22T16:23:46;14.50;99.90
11736;DHT22;5924;51.398;7.088;2022-10-22T16:26:12;14.40;99.90
11736;DHT22;5924;51.398;7.088;2022-10-22T16:28:40;14.30;99.90
11736;DHT22;5924;51.398;7.088;2022-10-22T16:31:08;14.30;99.90
11736;DHT22;5924;51.398;7.088;2022-10-22T16:33:35;14.30;99.90
11736;DHT22;5924;51.398;7.088;2022-10-22T16:36:03;14.20;99.90
11736;DHT22;5924;51.398;7.088;2022-10-22T16:38:28;14.20;99.90
11736;DHT22;5924;51.398;7.088;2022-10-22T16:41:09;14.20;99.90
11736;DHT22;5924;51.398;7.088;2022-10-22T16:43:34;14.20;99.90
11736;DHT22;5924;51.398;7.088;2022-10-22T16:46:01;14.20;99.90
11736;DHT22;5924;51.398;7.088;2022-10-22T16:48:27;14.20;99.90
11736;DHT22;5924;51.398;7.088;2022-10-22T16:50:52;14.10;99.90
11736;DHT22;5924;51.398;7.088;2022-10-22T16:53:19;14.00;99.90
11736;DHT22;5924;51.398;7.088;2022-10-22T16:55:44;13.90;99.90
11736;DHT22;5924;51.398;7.088;2022-10-22T16:58:10;13.80;99.90
11736;DHT22;5924;51.398;7.088;2022-10-22T17:00:36;13.70;99.90
11736;DHT22;5924;51.398;7.088;2022-10-22T17:03:02;13.70;99.90
11736;DHT22;5924;51.398;7.088;2022-10-22T17:05:27;13.60;99.90
11736;DHT22;5924;51.398;7.088;2022-10-22T17:07:53;13.60;99.90
11736;DHT22;5924;51.398;7.088;2022-10-22T17:10:19;13.50;99.90
11736;DHT22;5924;51.398;7.088;2022-10-22T17:12:46;13.40;99.90
11736;DHT22;5924;51.398;7.088;2022-10-22T17:15:12;13.20;99.90
11736;DHT22;5924;51.398;7.088;2022-10-22T17:17:38;13.20;99.90
11736;DHT22;5924;51.398;7.088;2022-10-22T17:20:04;13.10;99.90
11736;DHT22;5924;51.398;7.088;2022-10-22T17:22:30;13.10;99.90
11736;DHT22;5924;51.398;7.088;2022-10-22T17:25:15;13.10;99.90
11736;DHT22;5924;51.398;7.088;2022-10-22T17:27:42;13.10;99.90
11736;DHT22;5924;51.398;7.088;2022-10-22T17:30:11;13.00;99.90
11736;DHT22;5924;51.398;7.088;2022-10-22T17:32:37;12.80;99.90
11736;DHT22;5924;51.398;7.088;2022-10-22T17:35:05;12.70;99.90
11736;DHT22;5924;51.398;7.088;2022-10-22T17:37:31;12.70;99.90
11736;DHT22;5924;51.398;7.088;2022-10-22T17:39:57;12.60;99.90
11736;DHT22;5924;51.398;7.088;2022-10-22T17:42:23;12.50;99.90
11736;DHT22;5924;51.398;7.088;2022-10-22T17:44:48;12.40;99.90
11736;DHT22;5924;51.398;7.088;2022-10-22T17:47:14;12.40;99.90
11736;DHT22;5924;51.398;7.088;2022-10-22T17:49:40;12.30;99.90
11736;DHT22;5924;51.398;7.088;2022-10-22T17:52:06;13.10;99.90
11736;DHT22;5924;51.398;7.088;2022-10-22T17:54:32;12.20;99.90
11736;DHT22;5924;51.398;7.088;2022-10-22T17:56:58;12.10;99.90
11736;DHT22;5924;51.398;7.088;2022-10-22T17:59:24;12.10;99.90
11736;DHT22;5924;51.398;7.088;2022-10-22T18:01:50;12.10;99.90